• Join FlightAware (Why Join?)
  • Login
  • US Flag 
07:48AM EDT


 

Airport Tracker/Info


-or-


 

Live Flight TrackerFlight Track Log ✈ UAL4407 ✈ 19-May-2013 ✈ KCHS - KEWR

Flight Track Log - Related Links

Times and Time Zones

All times are in EDT time to prevent confusion due to time zone crossing. See the UAL4407 flight status page for this flight to view local times or setup timezone preferences in your user account.

Time Position Orientation Groundspeed Altitude Reporting Facility
EDT Latitude Longitude Course Direction KTS MPH feet Rate Location/Type
06:09AM 33.1482 -79.9500 North  Level FlightAware Approximate
06:09AM 32.9031 -79.9656 13° North 226 260 6,800  Level Jacksonville Center
06:10AM 33.2379 -79.9291 North  Level FlightAware Approximate
06:10AM 32.9669 -79.9314 24° Northeast 277 319 8,700  Level Jacksonville Center
06:11AM 33.3266 -79.9034 23° Northeast  Level FlightAware Approximate
06:11AM 33.0506 -79.9336 359° North 301 346 10,000  Level Jacksonville Center
06:12AM 33.4145 -79.8738 North  Level FlightAware Approximate
06:12AM 33.1486 -79.9378 358° North 323 372 11,200  Level Jacksonville Center
06:13AM 33.5043 -79.8512 13° North  Level FlightAware Approximate
06:13AM 33.2489 -79.9369 360° North 343 395 13,100  Level Jacksonville Center
06:14AM 33.5936 -79.8257 13° North  Level FlightAware Approximate
06:14AM 33.3606 -79.9033 14° North 360 414 15,500  Level Jacksonville Center
06:15AM 33.4561 -79.8778 13° North 365 420 17,200 1,500 Climbing Jacksonville Center
06:16AM 33.5597 -79.8494 13° North 370 426 18,500 900 Climbing Jacksonville Center
06:17AM 33.6633 -79.8183 14° North 370 426 19,000 240 Climbing Jacksonville Center
06:18AM 33.7706 -79.7672 22° Northeast 383 441 19,000  Level Jacksonville Center
06:19AM 33.8756 -79.7083 25° Northeast 402 463 19,000 300 Level Jacksonville Center
06:20AM 33.9806 -79.6519 24° Northeast 408 470 19,600 1,020 Climbing Jacksonville Center
06:21AM 34.0856 -79.5953 24° Northeast 413 475 21,100 1,620 Climbing Jacksonville Center
06:22AM 34.1864 -79.5439 23° Northeast 413 475 22,900 1,800 Climbing Jacksonville Center
06:23AM 34.2833 -79.5025 19° North 397 457 24,800 1,440 Climbing Jacksonville Center
06:24AM 34.4486 -79.4828 North 387 445 26,700 780 Climbing Washington Center
06:25AM 34.5483 -79.4322 23° Northeast 387 445 27,000 120 Climbing Washington Center
06:26AM 34.6522 -79.3792 23° Northeast 387 445 27,000  Level Washington Center
06:27AM 34.7561 -79.3283 22° Northeast 393 452 27,000 540 Level Washington Center
06:28AM 34.8558 -79.2747 24° Northeast 393 452 28,200 1,260 Climbing Washington Center
06:29AM 34.9533 -79.2233 23° Northeast 393 452 29,600 1,440 Climbing Washington Center
06:30AM 35.0508 -79.1744 22° Northeast 382 440 31,100 1,500 Climbing Washington Center
06:31AM 35.1483 -79.1228 23° Northeast 377 434 32,600 1,500 Climbing Washington Center
06:32AM 35.2417 -79.0736 23° Northeast 377 434 34,100 1,140 Climbing Washington Center
06:33AM 35.3200 -79.0336 23° Northeast 377 434 34,900 420 Climbing Washington Center
06:34AM 35.4236 -78.9794 23° Northeast 371 427 35,000  Climbing Washington Center
06:35AM 35.5297 -78.9253 23° Northeast 382 440 35,000  Level Washington Center
06:36AM 35.6378 -78.8658 24° Northeast 402 463 35,000  Level Washington Center
06:37AM 35.7519 -78.8067 23° Northeast 423 487 35,000  Level Washington Center
06:38AM 35.8619 -78.7469 24° Northeast 428 493 35,000  Level Washington Center
06:39AM 35.9742 -78.6847 24° Northeast 428 493 35,000  Level Washington Center
06:40AM 36.0864 -78.6250 23° Northeast 428 493 35,000  Level Washington Center
06:41AM 36.2006 -78.5650 23° Northeast 428 493 35,000  Level Washington Center
06:42AM 36.3128 -78.5022 24° Northeast 428 493 35,000  Level Washington Center
06:43AM 36.4267 -78.4419 23° Northeast 433 498 35,000  Level Washington Center
06:44AM 36.5408 -78.3789 24° Northeast 439 505 35,000  Level Washington Center
06:45AM 36.6572 -78.3183 23° Northeast 439 505 35,000  Level Washington Center
06:46AM 36.7692 -78.2522 25° Northeast 439 505 35,000  Level Washington Center
06:47AM 36.8833 -78.1886 24° Northeast 444 511 35,000  Level Washington Center
06:48AM 36.9972 -78.1275 23° Northeast 444 511 35,000  Level Washington Center
06:49AM 37.1111 -78.0633 24° Northeast 444 511 35,000  Level Washington Center
06:50AM 37.2231 -78.0019 24° Northeast 444 511 35,000  Level Washington Center
06:51AM 37.3328 -77.9400 24° Northeast 438 504 35,000  Level Washington Center
06:52AM 37.4422 -77.8806 23° Northeast 438 504 35,000  Level Washington Center
06:53AM 37.5500 -77.8078 28° Northeast 433 498 35,000  Level Washington Center
06:54AM 37.6497 -77.7189 35° Northeast 433 498 35,000  Level Washington Center
06:55AM 37.7514 -77.6300 35° Northeast 438 504 35,000  Level Washington Center
06:56AM 37.8489 -77.5378 37° Northeast 438 504 35,000  Level Washington Center
06:57AM 37.9525 -77.4458 35° Northeast 438 504 35,000 -480 Level Washington Center
06:58AM 38.0603 -77.3481 36° Northeast 438 504 34,100 -960 Descending Washington Center
06:59AM 38.1597 -77.2553 36° Northeast 438 504 33,100 -540 Descending Washington Center
07:00AM 38.2506 -77.1675 37° Northeast 443 510 33,000 -60 Descending Washington Center
07:01AM 38.3558 -77.0717 36° Northeast 438 504 33,000  Level Washington Center
07:02AM 38.4550 -76.9808 36° Northeast 438 504 33,000  Level Washington Center
07:03AM 38.5561 -76.8847 37° Northeast 438 504 33,000  Level Washington Center
07:04AM 38.6572 -76.7906 36° Northeast 443 510 33,000  Level Washington Center
07:05AM 38.7542 -76.6911 39° Northeast 443 510 33,000  Level Washington Center
07:06AM 38.8467 -76.5806 43° Northeast 443 510 33,000 -240 Level Washington Center
07:07AM 38.9414 -76.4722 42° Northeast 448 516 32,600 -1,200 Descending Washington Center
07:08AM 39.0339 -76.3639 42° Northeast 448 516 30,700 -1,980 Descending Washington Center
07:09AM 39.1283 -76.2553 42° Northeast 448 516 28,700 -1,800 Descending Washington Center
07:10AM 39.2247 -76.1517 40° Northeast 458 527 27,100 -900 Descending Washington Center
07:11AM 39.3211 -76.0342 43° Northeast 471 542 27,000 -60 Descending Washington Center
07:12AM 39.4111 -75.9247 43° Northeast 466 536 27,000 -360 Level Washington Center
07:13AM 39.5114 -75.8094 42° Northeast 460 529 26,300 -1,380 Descending Washington Center
07:14AM 39.6072 -75.6967 42° Northeast 465 535 24,200 -2,220 Descending Washington Center
07:15AM 39.7011 -75.5833 43° Northeast 465 535 21,900 -2,460 Descending Washington Center
07:16AM 39.7886 -75.4781 43° Northeast 450 518 19,400 -2,280 Descending Washington Center
07:17AM 39.8800 -75.3672 43° Northeast 424 488 17,400 -2,160 Descending Washington Center
07:18AM 39.9631 -75.2694 42° Northeast 403 464 15,100 -2,340 Descending Washington Center
07:19AM 40.0419 -75.1714 44° Northeast 396 456 12,800 -2,100 Descending Washington Center
07:20AM 40.1144 -75.0814 43° Northeast 381 438 11,000 -1,380 Descending Washington Center
07:22AM 40.2167 -74.9667 41° Northeast 284 327 9,300 -1,200 Descending New York TRACON
07:23AM 40.2500 -74.9167 49° Northeast 284 327 8,400 -780 Descending New York TRACON
07:24AM 40.3000 -74.8333 52° Northeast 281 323 8,000 -660 Descending New York TRACON
07:25AM 40.3500 -74.7667 45° Northeast 282 325 7,200 -960 Descending New York TRACON
07:26AM 40.4000 -74.7000 45° Northeast 277 319 6,200 -1,020 Descending New York TRACON
07:26AM 40.4667 -74.6667 21° North 282 325 5,300 -600 Descending New York TRACON
07:27AM 40.5333 -74.6333 21° North 276 318 5,100 -120 Descending New York TRACON
07:28AM 40.6167 -74.6167 North 279 321 5,100  Level New York TRACON
07:29AM 40.6833 -74.6000 11° North 278 320 5,100 -60 Level New York TRACON
07:30AM 40.7500 -74.5667 21° North 288 331 5,000 -480 Descending New York TRACON
07:31AM 40.8000 -74.5000 45° Northeast 279 321 4,200 -600 Descending New York TRACON
07:32AM 40.8500 -74.4000 57° Northeast 257 296 3,900 -600 Descending New York TRACON
07:33AM 40.8500 -74.3333 90° East 223 257 3,100 -480 Descending New York TRACON
07:34AM 40.8500 -74.2667 90° East 212 244 3,100  Level New York TRACON
07:35AM 40.8500 -74.1833 90° East 205 236 3,100 -180 Level New York TRACON
07:36AM 40.8500 -74.1167 90° East 195 224 2,800 -360 Descending New York TRACON
07:37AM 40.8000 -74.1000 166° South 171 197 2,400 -600 Descending New York TRACON
07:38AM 40.7667 -74.1167 201° Southwest 163 188 1,600 -840 Descending New York TRACON